Time;durP1;ratioP1;P1;durP2;ratioP2;P2;SDS_P1;SDS_P2;PMS_P1;PMS_P2;Temp;Humidity;BMP_temperature;BMP_pressure;BME280_temperature;BME280_humidity;BME280_pressure;Samples;Min_cycle;Max_cycle;Signal;HPM_P1;HPM_P2
2023/01/19 00:01:12;;;;;;;101.07;18.35;;;-4.20;99.90;;;;;;5012508;28;20032;-59
2023/01/19 00:03:38;;;;;;;128.93;19.00;;;-4.20;99.90;;;;;;5010416;28;20029;-58
2023/01/19 00:06:08;;;;;;;126.32;19.48;;;-4.10;99.90;;;;;;5006825;28;20026;-58
2023/01/19 00:08:37;;;;;;;81.88;18.52;;;-4.20;99.90;;;;;;5010126;28;20700;-58
2023/01/19 00:11:04;;;;;;;151.98;21.65;;;-4.20;99.90;;;;;;5015186;28;20053;-58
2023/01/19 00:13:29;;;;;;;159.88;20.55;;;-4.20;99.90;;;;;;5009503;28;20393;-59
2023/01/19 00:15:55;;;;;;;88.50;20.77;;;-4.20;99.90;;;;;;5019734;28;20026;-59
2023/01/19 00:18:21;;;;;;;85.78;18.13;;;-4.20;99.90;;;;;;5009984;28;20091;-58
2023/01/19 00:20:47;;;;;;;109.15;18.30;;;-4.20;99.90;;;;;;5003747;28;20482;-59
2023/01/19 00:23:14;;;;;;;110.45;17.88;;;-4.20;99.90;;;;;;5005955;28;20037;-58
2023/01/19 00:25:43;;;;;;;64.40;13.43;;;-4.20;99.90;;;;;;5003853;28;20502;-59
2023/01/19 00:28:13;;;;;;;44.75;16.80;;;-4.20;99.90;;;;;;5004675;28;20038;-59
2023/01/19 00:30:39;;;;;;;49.35;14.73;;;-4.30;99.90;;;;;;5008454;28;20505;-58
2023/01/19 00:33:04;;;;;;;145.32;18.42;;;-4.40;99.90;;;;;;5004024;28;20041;-59
2023/01/19 00:35:30;;;;;;;196.68;19.52;;;-4.40;99.90;;;;;;5003651;28;20389;-59
2023/01/19 00:37:57;;;;;;;75.28;15.48;;;-4.50;99.90;;;;;;5011722;28;20075;-58
2023/01/19 00:40:23;;;;;;;184.27;20.35;;;-4.50;99.90;;;;;;5015458;28;20037;-58
2023/01/19 00:42:48;;;;;;;110.95;16.90;;;-4.60;99.90;;;;;;5012962;28;20064;-59
2023/01/19 00:45:22;;;;;;;195.90;21.50;;;-4.60;99.90;;;;;;5009437;28;20050;-59
2023/01/19 00:47:49;;;;;;;176.85;17.50;;;-4.70;99.90;;;;;;5007869;28;20056;-58
2023/01/19 00:50:16;;;;;;;108.38;16.02;;;-4.80;99.90;;;;;;5006641;28;20033;-59
2023/01/19 00:52:43;;;;;;;133.57;17.05;;;-4.90;99.90;;;;;;5014605;28;20053;-59
2023/01/19 00:55:14;;;;;;;107.22;16.40;;;-4.90;99.90;;;;;;5011688;28;20378;-58
2023/01/19 00:57:40;;;;;;;127.25;17.17;;;-5.00;99.90;;;;;;5011932;28;20099;-58
2023/01/19 01:00:10;;;;;;;107.60;16.30;;;-5.00;99.90;;;;;;5007211;28;20030;-58
2023/01/19 01:02:37;;;;;;;157.90;17.50;;;-5.00;99.90;;;;;;5013901;28;20050;-58
2023/01/19 01:05:04;;;;;;;89.63;15.52;;;-5.00;99.90;;;;;;5014063;28;20474;-59
2023/01/19 01:07:33;;;;;;;147.10;16.92;;;-5.00;99.90;;;;;;5010630;28;20022;-59
2023/01/19 01:09:59;;;;;;;111.32;16.52;;;-5.00;99.90;;;;;;5011049;28;20006;-58
2023/01/19 01:12:27;;;;;;;119.85;17.13;;;-5.10;99.90;;;;;;5012800;28;20034;-59
2023/01/19 01:14:53;;;;;;;93.57;16.48;;;-5.10;99.90;;;;;;5011359;28;20026;-58
2023/01/19 01:17:23;;;;;;;109.75;16.80;;;-5.10;99.90;;;;;;5011705;28;20029;-60
2023/01/19 01:19:50;;;;;;;171.07;19.52;;;-5.10;99.90;;;;;;5008078;28;20049;-60
2023/01/19 01:22:15;;;;;;;54.45;17.00;;;-5.10;99.90;;;;;;5011583;28;20018;-59
2023/01/19 01:24:41;;;;;;;134.07;17.73;;;-5.00;99.90;;;;;;5016567;28;20433;-59
2023/01/19 01:27:07;;;;;;;70.45;16.60;;;-5.00;99.90;;;;;;5012671;28;20030;-57
2023/01/19 01:29:34;;;;;;;136.88;19.83;;;-4.90;99.90;;;;;;5016000;28;20492;-59
2023/01/19 01:32:00;;;;;;;69.60;15.82;;;-4.90;99.90;;;;;;5014809;28;20022;-58
2023/01/19 01:34:26;;;;;;;117.88;16.23;;;-4.90;99.90;;;;;;5017275;28;20492;-57
2023/01/19 01:36:53;;;;;;;115.07;16.27;;;-4.90;99.90;;;;;;5012133;28;20031;-57
2023/01/19 01:39:19;;;;;;;122.95;15.40;;;-4.90;99.90;;;;;;5016294;28;20104;-57
2023/01/19 01:41:45;;;;;;;54.40;15.18;;;-4.90;99.90;;;;;;5015722;28;20029;-59
2023/01/19 01:45:07;;;;;;;126.90;18.65;;;-5.00;99.90;;;;;;5016034;28;20034;-59
2023/01/19 01:47:44;;;;;;;125.55;17.25;;;-5.10;99.90;;;;;;4978432;28;20031;-59
2023/01/19 01:50:10;;;;;;;209.43;19.92;;;-5.10;99.90;;;;;;4977131;28;20039;-59
2023/01/19 01:52:39;;;;;;;243.98;19.10;;;-5.10;99.90;;;;;;4988937;28;20037;-58
2023/01/19 01:55:06;;;;;;;205.75;18.85;;;-5.20;99.90;;;;;;5004086;28;20022;-58
2023/01/19 01:57:38;;;;;;;173.80;18.58;;;-5.20;99.90;;;;;;5009891;28;20034;-57
2023/01/19 02:00:05;;;;;;;220.32;20.20;;;-5.20;99.90;;;;;;5009934;28;20026;-57
2023/01/19 02:02:53;;;;;;;133.43;17.17;;;-5.30;99.90;;;;;;5006823;28;20034;-57
2023/01/19 02:05:33;;;;;;;169.60;17.65;;;-5.30;99.90;;;;;;5006194;28;20040;-57
2023/01/19 02:13:38;;;;;;;83.80;15.98;;;-5.30;99.90;;;;;;5017785;28;20037;-57
2023/01/19 02:16:08;;;;;;;157.45;16.88;;;-5.30;99.90;;;;;;5014218;28;20461;-56
2023/01/19 02:18:35;;;;;;;120.38;15.82;;;-5.30;99.90;;;;;;5013809;28;20026;-58
2023/01/19 02:21:21;;;;;;;30.55;13.38;;;-5.30;99.90;;;;;;5012304;28;20042;-58
2023/01/19 02:23:54;;;;;;;55.17;13.82;;;-5.30;99.90;;;;;;4992265;28;20037;-56
2023/01/19 02:26:21;;;;;;;61.78;12.65;;;-5.30;99.90;;;;;;5012407;28;20025;-57
2023/01/19 02:28:51;;;;;;;42.72;12.52;;;-5.30;99.90;;;;;;5012213;28;20030;-57
2023/01/19 02:31:17;;;;;;;32.15;9.48;;;-5.40;99.90;;;;;;5010779;28;20030;-57
2023/01/19 02:33:43;;;;;;;24.92;10.63;;;-5.50;99.90;;;;;;5009346;28;20052;-58
2023/01/19 02:36:12;;;;;;;31.77;10.73;;;-5.60;99.90;;;;;;5012349;28;20108;-57
2023/01/19 02:38:39;;;;;;;16.88;10.63;;;-5.70;99.90;;;;;;5003348;28;20139;-57
2023/01/19 02:41:07;;;;;;;14.65;11.35;;;-5.80;99.90;;;;;;5014668;28;20033;-57
2023/01/19 02:43:34;;;;;;;24.88;10.93;;;-5.90;99.90;;;;;;5014944;28;20021;-57
2023/01/19 02:46:00;;;;;;;17.75;11.73;;;-6.00;99.90;;;;;;5013935;28;20046;-56
2023/01/19 02:48:26;;;;;;;28.25;12.30;;;-5.90;99.90;;;;;;5009497;28;20057;-58
2023/01/19 02:51:03;;;;;;;21.13;10.60;;;-6.00;99.90;;;;;;5011943;28;20794;-57
2023/01/19 02:53:46;;;;;;;18.48;10.93;;;-6.00;99.90;;;;;;5012920;28;20025;-57
2023/01/19 02:56:23;;;;;;;14.65;11.32;;;-6.00;99.90;;;;;;5011660;28;20046;-55
2023/01/19 02:59:14;;;;;;;19.10;11.07;;;-6.10;99.90;;;;;;5015105;28;20018;-57
2023/01/19 03:02:12;;;;;;;13.25;10.52;;;-6.10;99.90;;;;;;5011533;28;20068;-58
2023/01/19 03:04:52;;;;;;;13.43;9.88;;;-6.20;99.90;;;;;;5014978;28;20064;-57
2023/01/19 03:07:30;;;;;;;12.95;10.57;;;-6.20;99.90;;;;;;5006796;28;20553;-57
2023/01/19 03:10:23;;;;;;;12.55;9.52;;;-6.30;99.90;;;;;;5018682;28;20171;-57
2023/01/19 03:12:52;;;;;;;11.32;9.70;;;-6.40;99.90;;;;;;5007604;28;20085;-57
2023/01/19 03:15:42;;;;;;;11.98;9.68;;;-6.50;99.90;;;;;;5011588;28;20029;-57
2023/01/19 03:18:11;;;;;;;14.40;10.18;;;-6.60;99.90;;;;;;5013000;28;20037;-57
2023/01/19 03:20:39;;;;;;;14.40;10.18;;;-6.60;99.90;;;;;;5013285;28;20073;-58
2023/01/19 03:23:09;;;;;;;11.05;9.43;;;-6.70;99.90;;;;;;5012192;28;20033;-58
2023/01/19 03:25:38;;;;;;;12.20;8.73;;;-6.80;99.90;;;;;;5009580;28;20065;-59
2023/01/19 03:28:04;;;;;;;14.13;9.63;;;-6.90;99.90;;;;;;5009422;28;20018;-58
2023/01/19 03:30:39;;;;;;;14.27;9.82;;;-7.10;99.90;;;;;;5010084;28;20030;-58
2023/01/19 03:33:18;;;;;;;16.90;11.02;;;-7.10;99.90;;;;;;5018504;28;20108;-58
2023/01/19 03:35:49;;;;;;;35.72;12.10;;;-7.20;99.90;;;;;;5020885;28;20588;-57
2023/01/19 03:38:19;;;;;;;22.55;11.77;;;-7.30;99.90;;;;;;5013294;28;20036;-57
2023/01/19 03:40:46;;;;;;;28.85;12.52;;;-7.40;99.90;;;;;;5015423;28;20052;-57
2023/01/19 03:43:15;;;;;;;101.45;12.60;;;-7.40;99.90;;;;;;5009997;28;20029;-57
2023/01/19 03:45:43;;;;;;;49.05;13.02;;;-7.50;99.90;;;;;;5016375;28;20042;-57
2023/01/19 03:48:08;;;;;;;17.17;11.40;;;-7.60;99.90;;;;;;5014211;28;20116;-58
2023/01/19 03:50:34;;;;;;;18.77;11.52;;;-7.60;99.90;;;;;;5007394;28;20125;-58
2023/01/19 03:53:00;;;;;;;14.90;11.00;;;-7.60;99.90;;;;;;5007953;28;20088;-56
2023/01/19 03:55:26;;;;;;;13.95;10.05;;;-7.60;99.90;;;;;;5010738;28;20034;-58
2023/01/19 03:57:51;;;;;;;16.60;11.45;;;-7.60;99.90;;;;;;5015406;28;20531;-56
2023/01/19 04:00:17;;;;;;;16.85;10.95;;;-7.60;99.90;;;;;;5012768;28;20084;-56
2023/01/19 04:02:43;;;;;;;14.20;9.70;;;-7.60;99.90;;;;;;5013976;28;20037;-56
2023/01/19 04:05:08;;;;;;;13.75;10.05;;;-7.60;99.90;;;;;;5009390;28;20493;-57
2023/01/19 04:07:34;;;;;;;14.38;10.18;;;-7.60;99.90;;;;;;5012776;28;20037;-57
2023/01/19 04:10:00;;;;;;;13.10;10.00;;;-7.50;99.90;;;;;;5008714;28;20022;-55
2023/01/19 04:12:25;;;;;;;15.20;9.57;;;-7.60;99.90;;;;;;5008747;28;20113;-56
2023/01/19 04:14:51;;;;;;;12.73;9.55;;;-7.70;99.90;;;;;;5013170;28;20030;-58
2023/01/19 04:17:16;;;;;;;10.88;8.70;;;-7.70;99.90;;;;;;5008180;28;20038;-56
2023/01/19 04:19:43;;;;;;;26.10;9.77;;;-7.80;99.90;;;;;;5008407;28;20018;-58
2023/01/19 04:22:09;;;;;;;16.20;10.10;;;-7.80;99.90;;;;;;5010187;28;20233;-57
2023/01/19 04:24:35;;;;;;;13.95;10.20;;;-7.90;99.90;;;;;;5014660;28;20561;-57
2023/01/19 04:27:00;;;;;;;14.68;10.15;;;-7.90;99.90;;;;;;5009236;28;20033;-57
2023/01/19 04:29:26;;;;;;;13.57;9.73;;;-7.90;99.90;;;;;;5008426;28;20026;-57
2023/01/19 04:31:52;;;;;;;17.60;11.25;;;-7.90;99.90;;;;;;5012861;28;20498;-57
2023/01/19 04:34:17;;;;;;;18.95;10.80;;;-7.90;99.90;;;;;;5014423;28;20045;-56
2023/01/19 04:36:44;;;;;;;25.90;12.82;;;-7.90;99.90;;;;;;5015233;28;20041;-57
2023/01/19 04:39:10;;;;;;;27.83;13.48;;;-7.80;99.90;;;;;;5011053;28;20041;-57
2023/01/19 04:41:36;;;;;;;20.77;13.38;;;-7.80;99.90;;;;;;5006884;28;20569;-58
2023/01/19 04:44:02;;;;;;;16.88;11.43;;;-7.70;99.90;;;;;;5003221;28;20037;-57
2023/01/19 04:46:28;;;;;;;21.33;11.43;;;-7.60;99.90;;;;;;4994796;28;20062;-57
2023/01/19 04:48:53;;;;;;;21.33;12.70;;;-7.50;99.90;;;;;;4998638;28;20540;-58
2023/01/19 04:51:19;;;;;;;26.08;14.82;;;-7.50;99.90;;;;;;5002691;28;20113;-58
2023/01/19 04:53:45;;;;;;;33.47;15.50;;;-7.50;99.90;;;;;;5008981;28;20047;-58
2023/01/19 04:56:11;;;;;;;28.65;13.95;;;-7.50;99.90;;;;;;5013082;28;20048;-58
2023/01/19 04:58:36;;;;;;;24.10;14.45;;;-7.40;99.90;;;;;;5003672;28;20022;-58
2023/01/19 05:01:07;;;;;;;28.63;13.82;;;-7.30;99.90;;;;;;5015948;28;20425;-59
2023/01/19 05:03:33;;;;;;;25.80;14.68;;;-7.20;99.90;;;;;;5008544;28;20034;-58
2023/01/19 05:05:58;;;;;;;36.92;16.50;;;-7.00;99.90;;;;;;5009086;28;20053;-58
2023/01/19 05:08:24;;;;;;;71.68;23.98;;;-6.80;99.90;;;;;;5007846;28;20030;-56
2023/01/19 05:10:49;;;;;;;45.90;16.05;;;-6.70;99.90;;;;;;5007677;28;20026;-56
2023/01/19 05:13:15;;;;;;;22.80;13.40;;;-6.50;99.90;;;;;;5014195;28;20393;-56
2023/01/19 05:15:41;;;;;;;22.05;12.35;;;-6.30;99.90;;;;;;5013892;28;20034;-56
2023/01/19 05:18:06;;;;;;;28.23;13.77;;;-6.10;99.90;;;;;;5004559;28;20080;-58
2023/01/19 05:20:32;;;;;;;27.30;13.30;;;-6.00;99.90;;;;;;5005879;28;20090;-57
2023/01/19 05:22:57;;;;;;;21.55;12.38;;;-5.90;99.90;;;;;;5007989;28;20054;-58
2023/01/19 05:25:23;;;;;;;27.48;13.70;;;-5.80;99.90;;;;;;5007278;28;20084;-57
2023/01/19 05:27:49;;;;;;;26.38;13.35;;;-5.70;99.90;;;;;;5002784;28;20397;-58
2023/01/19 05:30:14;;;;;;;19.08;11.15;;;-5.60;99.90;;;;;;5005847;28;20025;-57
2023/01/19 05:32:40;;;;;;;19.45;11.00;;;-5.60;99.90;;;;;;5007330;28;20060;-57
2023/01/19 05:35:06;;;;;;;19.42;10.55;;;-5.70;99.90;;;;;;5013534;28;20029;-59
2023/01/19 05:37:33;;;;;;;16.65;10.10;;;-5.70;99.90;;;;;;5008364;28;20545;-58
2023/01/19 05:39:58;;;;;;;17.98;10.50;;;-5.80;99.90;;;;;;5006031;28;20030;-57
2023/01/19 05:42:24;;;;;;;22.38;11.02;;;-5.80;99.90;;;;;;5004874;28;20145;-57
2023/01/19 05:44:50;;;;;;;15.02;9.55;;;-5.80;99.90;;;;;;5007928;28;20048;-55
2023/01/19 05:47:15;;;;;;;35.13;14.57;;;-5.80;99.90;;;;;;5005241;28;20034;-57
2023/01/19 05:49:41;;;;;;;48.17;18.02;;;-5.70;99.90;;;;;;5014422;28;20030;-58
2023/01/19 05:52:07;;;;;;;29.77;13.88;;;-5.70;99.90;;;;;;5016576;28;20033;-56
2023/01/19 05:54:32;;;;;;;39.58;18.02;;;-5.60;99.90;;;;;;5014604;28;20097;-58
2023/01/19 05:56:58;;;;;;;27.75;14.93;;;-5.50;99.90;;;;;;5009342;28;20501;-58
2023/01/19 05:59:24;;;;;;;35.10;16.17;;;-5.50;99.90;;;;;;5011993;28;20060;-57
2023/01/19 06:01:52;;;;;;;27.88;13.20;;;-5.40;99.90;;;;;;5008317;28;20412;-58
2023/01/19 06:04:19;;;;;;;20.52;11.55;;;-5.40;99.90;;;;;;5017769;28;20026;-57
2023/01/19 06:06:48;;;;;;;103.00;32.28;;;-5.30;99.90;;;;;;5003184;28;20030;-57
2023/01/19 06:09:14;;;;;;;28.13;15.73;;;-5.30;99.90;;;;;;5002347;28;20133;-57
2023/01/19 06:11:39;;;;;;;22.70;12.20;;;-5.30;99.90;;;;;;5017291;28;20846;-59
2023/01/19 06:14:05;;;;;;;20.30;11.20;;;-5.40;99.90;;;;;;5016740;28;20037;-57
2023/01/19 06:16:31;;;;;;;20.90;11.45;;;-5.40;99.90;;;;;;5016334;28;20022;-57
2023/01/19 06:18:57;;;;;;;20.05;12.10;;;-5.40;99.90;;;;;;4995624;28;20485;-58
2023/01/19 06:21:23;;;;;;;17.35;10.82;;;-5.40;99.90;;;;;;5010798;28;20030;-58
2023/01/19 06:23:48;;;;;;;14.32;8.93;;;-5.30;99.90;;;;;;5009597;28;20042;-57
2023/01/19 06:26:14;;;;;;;12.75;9.80;;;-5.30;99.90;;;;;;5006765;28;20022;-58
2023/01/19 06:28:39;;;;;;;23.58;11.88;;;-5.40;99.90;;;;;;5015035;28;20026;-57
2023/01/19 06:31:05;;;;;;;40.22;19.25;;;-5.30;99.90;;;;;;5013121;28;20018;-59
2023/01/19 06:33:31;;;;;;;29.73;15.02;;;-5.20;99.90;;;;;;5011449;28;20117;-58
2023/01/19 06:35:56;;;;;;;29.20;17.15;;;-5.10;99.90;;;;;;5005959;28;20034;-58
2023/01/19 06:38:22;;;;;;;87.43;29.23;;;-5.00;99.90;;;;;;5016007;28;20030;-58
2023/01/19 06:40:54;;;;;;;187.25;54.47;;;-4.80;99.90;;;;;;5013806;28;20036;-57
2023/01/19 06:43:20;;;;;;;56.50;20.63;;;-4.70;99.90;;;;;;5008865;28;20079;-57
2023/01/19 06:45:46;;;;;;;25.27;15.60;;;-4.60;99.90;;;;;;5004297;28;20081;-58
2023/01/19 06:48:12;;;;;;;23.75;14.00;;;-4.60;99.90;;;;;;5008581;28;20037;-57
2023/01/19 06:50:39;;;;;;;71.60;25.00;;;-4.50;99.90;;;;;;5017040;28;20029;-58
2023/01/19 06:53:05;;;;;;;31.02;15.90;;;-4.40;99.90;;;;;;5015190;28;20037;-57
2023/01/19 06:55:30;;;;;;;21.65;13.23;;;-4.30;99.90;;;;;;5016949;28;20033;-57
2023/01/19 06:57:57;;;;;;;21.42;11.45;;;-4.30;99.90;;;;;;5015815;28;20430;-56
2023/01/19 07:00:24;;;;;;;15.55;11.05;;;-4.30;99.90;;;;;;5012527;28;20034;-57
2023/01/19 07:02:50;;;;;;;20.70;11.40;;;-4.30;99.90;;;;;;5012349;28;20032;-58
2023/01/19 07:05:15;;;;;;;14.13;10.65;;;-4.30;99.90;;;;;;5012286;28;20030;-58
2023/01/19 07:07:43;;;;;;;15.25;10.45;;;-4.30;99.90;;;;;;5012507;28;20160;-57
2023/01/19 07:10:15;;;;;;;18.27;11.93;;;-4.30;99.90;;;;;;5014231;28;20140;-57
2023/01/19 07:12:41;;;;;;;19.33;11.70;;;-4.30;99.90;;;;;;5011547;28;20034;-57
2023/01/19 07:15:08;;;;;;;16.48;10.38;;;-4.20;99.90;;;;;;5010787;28;20029;-59
2023/01/19 07:17:33;;;;;;;16.15;11.77;;;-4.20;99.90;;;;;;5013401;28;20030;-59
2023/01/19 07:19:59;;;;;;;18.77;11.57;;;-4.10;99.90;;;;;;5014550;28;20067;-57
2023/01/19 07:22:25;;;;;;;18.50;12.35;;;-4.10;99.90;;;;;;5016508;28;20478;-58
2023/01/19 07:24:50;;;;;;;20.67;11.77;;;-4.10;99.90;;;;;;5012573;28;20406;-57
2023/01/19 07:27:16;;;;;;;37.50;18.65;;;-4.00;99.90;;;;;;5011341;28;20030;-58
2023/01/19 07:29:41;;;;;;;25.08;14.65;;;-4.00;99.90;;;;;;5014190;28;20100;-58
2023/01/19 07:32:07;;;;;;;25.35;16.13;;;-3.90;99.90;;;;;;5009942;28;20037;-57
2023/01/19 07:34:33;;;;;;;37.25;21.48;;;-3.80;99.90;;;;;;5009155;28;20025;-56
2023/01/19 07:36:59;;;;;;;31.88;20.17;;;-3.70;99.90;;;;;;5009260;28;20014;-57
2023/01/19 07:39:24;;;;;;;36.70;18.98;;;-3.60;99.90;;;;;;5006300;28;20387;-57
2023/01/19 07:41:50;;;;;;;52.10;25.40;;;-3.50;99.90;;;;;;5006825;28;20043;-57
2023/01/19 07:44:16;;;;;;;28.88;15.68;;;-3.50;99.90;;;;;;5014447;28;20041;-56
2023/01/19 07:46:42;;;;;;;23.73;13.88;;;-3.40;99.90;;;;;;5010133;28;20040;-58
2023/01/19 07:49:07;;;;;;;19.40;13.20;;;-3.30;99.90;;;;;;5011051;28;20018;-57
2023/01/19 07:51:33;;;;;;;24.50;13.77;;;-3.30;99.90;;;;;;5010454;28;20030;-59
2023/01/19 07:53:59;;;;;;;46.60;18.83;;;-3.20;99.90;;;;;;5013329;28;20505;-58
2023/01/19 07:56:26;;;;;;;46.40;17.27;;;-3.20;99.90;;;;;;5009208;28;20038;-58
2023/01/19 07:58:52;;;;;;;32.40;15.35;;;-3.10;99.90;;;;;;5007373;28;20027;-56
2023/01/19 08:01:17;;;;;;;24.67;13.23;;;-3.10;99.90;;;;;;5012936;28;20025;-56
2023/01/19 08:03:43;;;;;;;24.35;13.25;;;-3.10;99.90;;;;;;5015088;28;20375;-58
2023/01/19 08:06:20;;;;;;;22.48;11.85;;;-3.10;99.90;;;;;;5014988;28;20037;-57
2023/01/19 08:08:46;;;;;;;23.45;13.98;;;-3.00;99.90;;;;;;5015326;28;20058;-58
2023/01/19 08:11:11;;;;;;;24.52;13.70;;;-3.00;99.90;;;;;;5007897;28;20065;-56
2023/01/19 08:13:37;;;;;;;23.98;14.30;;;-2.90;99.90;;;;;;5005574;28;20038;-57
2023/01/19 08:16:03;;;;;;;40.67;16.40;;;-2.90;99.90;;;;;;5009464;28;20033;-57
2023/01/19 08:18:29;;;;;;;20.13;12.23;;;-2.80;99.90;;;;;;5008773;28;20037;-57
2023/01/19 08:20:57;;;;;;;24.95;14.70;;;-2.70;99.90;;;;;;5005782;28;20535;-59
2023/01/19 08:23:22;;;;;;;26.00;13.00;;;-2.60;99.90;;;;;;5001760;28;20116;-57
2023/01/19 08:25:48;;;;;;;22.90;14.52;;;-2.60;99.90;;;;;;5003244;28;20463;-59
2023/01/19 08:28:15;;;;;;;26.55;14.60;;;-2.50;99.90;;;;;;5008826;28;20030;-58
2023/01/19 08:30:43;;;;;;;20.77;14.10;;;-2.50;99.90;;;;;;5010389;28;20060;-58
2023/01/19 08:33:10;;;;;;;22.23;14.07;;;-2.50;99.90;;;;;;5008828;28;20381;-58
2023/01/19 08:35:38;;;;;;;23.67;14.25;;;-2.40;99.90;;;;;;5007007;28;20042;-59
2023/01/19 08:38:05;;;;;;;23.25;13.60;;;-2.40;99.90;;;;;;5012449;28;20033;-58
2023/01/19 08:40:33;;;;;;;23.77;13.48;;;-2.30;99.90;;;;;;5013222;28;20113;-58
2023/01/19 08:43:12;;;;;;;23.50;14.50;;;-2.40;99.90;;;;;;5013487;28;20022;-59
2023/01/19 08:45:47;;;;;;;28.55;14.27;;;-2.40;99.90;;;;;;5009181;28;20033;-59
2023/01/19 08:48:18;;;;;;;28.95;14.75;;;-2.30;99.90;;;;;;5010772;28;20014;-58
2023/01/19 08:50:47;;;;;;;22.65;13.95;;;-2.20;99.90;;;;;;5008428;28;20093;-59
2023/01/19 08:53:13;;;;;;;34.70;16.67;;;-2.20;99.90;;;;;;5013116;28;20028;-58
2023/01/19 08:55:39;;;;;;;30.00;17.08;;;-2.20;99.90;;;;;;5006593;28;20058;-58
2023/01/19 08:58:07;;;;;;;27.27;17.17;;;-2.20;99.90;;;;;;5007815;28;20052;-59
2023/01/19 09:00:36;;;;;;;32.10;16.58;;;-2.10;99.90;;;;;;5009116;28;20086;-58
2023/01/19 09:03:03;;;;;;;27.13;16.83;;;-2.10;99.90;;;;;;5003842;28;20022;-58
2023/01/19 09:05:37;;;;;;;29.50;16.88;;;-2.00;99.90;;;;;;5002982;28;20081;-61
2023/01/19 09:08:06;;;;;;;30.58;17.10;;;-2.00;99.90;;;;;;5006727;28;20801;-59
2023/01/19 09:10:34;;;;;;;31.05;16.85;;;-1.90;99.90;;;;;;5006326;28;20492;-59
2023/01/19 09:13:03;;;;;;;25.55;15.93;;;-1.80;99.90;;;;;;5007592;28;20045;-58
2023/01/19 09:15:31;;;;;;;26.63;17.50;;;-1.80;99.90;;;;;;5007951;28;20393;-58
2023/01/19 09:17:56;;;;;;;24.63;15.55;;;-1.70;99.90;;;;;;5003235;28;20022;-58
2023/01/19 09:20:22;;;;;;;29.23;17.05;;;-1.70;99.90;;;;;;5008935;28;20377;-59
2023/01/19 09:22:48;;;;;;;36.03;20.33;;;-1.70;99.90;;;;;;5005603;28;20025;-58
2023/01/19 09:25:13;;;;;;;34.00;18.73;;;-1.60;99.90;;;;;;5003678;28;20037;-59
2023/01/19 09:27:39;;;;;;;30.70;19.65;;;-1.60;99.90;;;;;;5011528;28;20040;-60
2023/01/19 09:30:05;;;;;;;30.95;20.50;;;-1.50;99.90;;;;;;5014177;28;20084;-58
2023/01/19 09:32:31;;;;;;;33.13;18.52;;;-1.40;99.90;;;;;;5011520;28;20018;-58
2023/01/19 09:34:57;;;;;;;32.45;19.25;;;-1.30;99.90;;;;;;5009277;28;20019;-59
2023/01/19 09:37:22;;;;;;;31.17;17.35;;;-1.20;99.90;;;;;;5010461;28;20210;-59
2023/01/19 09:39:48;;;;;;;30.23;19.45;;;-1.20;99.90;;;;;;5011335;28;20543;-58
2023/01/19 09:42:28;;;;;;;33.97;19.02;;;-1.10;99.90;;;;;;5011319;28;20125;-58
2023/01/19 09:44:54;;;;;;;35.88;18.42;;;-1.00;99.90;;;;;;5013518;28;20033;-60
2023/01/19 09:47:25;;;;;;;38.67;18.30;;;-1.00;99.90;;;;;;5016784;28;20036;-59
2023/01/19 09:50:12;;;;;;;31.88;18.02;;;-1.10;99.90;;;;;;5015678;28;20026;-58
2023/01/19 09:52:42;;;;;;;27.92;16.67;;;-1.10;99.90;;;;;;5014102;28;20266;-58
2023/01/19 09:55:21;;;;;;;27.92;17.17;;;-1.10;99.90;;;;;;5011999;28;20367;-58
2023/01/19 09:57:47;;;;;;;27.27;17.52;;;-1.00;99.90;;;;;;5017254;28;20022;-58
2023/01/19 10:00:18;;;;;;;26.75;17.58;;;-1.00;99.90;;;;;;5013708;28;20125;-59
2023/01/19 10:03:00;;;;;;;25.48;15.25;;;-0.90;99.90;;;;;;5012597;28;20025;-59
2023/01/19 10:05:54;;;;;;;24.25;16.15;;;-0.90;99.90;;;;;;5015571;28;20052;-57
2023/01/19 10:08:50;;;;;;;24.85;13.77;;;-0.80;99.90;;;;;;5013022;28;20053;-58
2023/01/19 10:11:38;;;;;;;26.25;12.30;;;-0.80;99.90;;;;;;5015415;28;20034;-59
2023/01/19 10:14:17;;;;;;;17.58;11.75;;;-0.80;99.90;;;;;;5015134;28;20033;-59
2023/01/19 10:17:30;;;;;;;14.68;11.68;;;-0.70;99.90;;;;;;5009461;28;20230;-60
2023/01/19 10:20:00;;;;;;;20.17;11.07;;;-0.70;99.90;;;;;;5002356;28;20041;-59
2023/01/19 10:22:27;;;;;;;14.95;11.73;;;-0.60;99.90;;;;;;5008724;28;20080;-59
2023/01/19 10:25:00;;;;;;;21.02;11.98;;;-0.60;99.90;;;;;;5012059;28;20030;-59
2023/01/19 10:27:29;;;;;;;17.98;11.57;;;-0.60;99.90;;;;;;5014046;28;20034;-59
2023/01/19 10:29:56;;;;;;;13.57;10.73;;;-0.60;99.90;;;;;;5013591;28;20064;-61
2023/01/19 10:32:34;;;;;;;15.18;11.60;;;-0.50;99.90;;;;;;5010908;28;20054;-58
2023/01/19 10:35:11;;;;;;;14.30;11.55;;;-0.50;99.90;;;;;;5014685;28;20025;-59
2023/01/19 10:37:38;;;;;;;18.13;12.00;;;-0.40;99.90;;;;;;5010722;28;20089;-59
2023/01/19 10:40:09;;;;;;;17.55;13.75;;;-0.30;99.90;;;;;;5013247;28;20060;-58
2023/01/19 10:42:37;;;;;;;21.60;13.02;;;-0.20;99.90;;;;;;5009524;28;20030;-59
2023/01/19 10:45:13;;;;;;;14.75;11.80;;;-0.10;99.90;;;;;;5010222;28;20045;-59
2023/01/19 10:47:40;;;;;;;14.30;11.35;;;-0.10;99.90;;;;;;5016808;28;20026;-59
2023/01/19 10:50:22;;;;;;;17.42;12.50;;;-0.10;99.90;;;;;;5012312;28;20036;-60
2023/01/19 10:52:53;;;;;;;26.75;13.73;;;-0.10;99.90;;;;;;5009950;28;20401;-58
2023/01/19 10:55:23;;;;;;;18.92;14.10;;;-0.10;99.90;;;;;;5013550;28;20033;-58
2023/01/19 10:57:51;;;;;;;16.13;12.95;;;-0.10;99.90;;;;;;5014371;28;20031;-60
2023/01/19 11:00:37;;;;;;;19.27;13.18;;;-0.20;99.90;;;;;;5007575;28;20038;-59
2023/01/19 11:03:21;;;;;;;25.17;12.38;;;-0.20;99.90;;;;;;5001564;28;20038;-58
2023/01/19 11:05:47;;;;;;;17.65;12.27;;;-0.30;99.90;;;;;;5003615;28;20034;-59
2023/01/19 11:08:45;;;;;;;19.42;15.13;;;-0.30;99.90;;;;;;5012562;28;20033;-59
2023/01/19 11:11:11;;;;;;;24.45;13.70;;;-0.30;99.90;;;;;;5003285;28;20489;-59
2023/01/19 11:13:41;;;;;;;22.63;15.00;;;-0.40;99.90;;;;;;5012365;28;20030;-60
2023/01/19 11:16:16;;;;;;;22.95;14.90;;;-0.40;99.90;;;;;;5005921;28;20060;-60
2023/01/19 11:18:42;;;;;;;22.05;15.70;;;-0.40;99.90;;;;;;5007827;28;20033;-58
2023/01/19 11:21:15;;;;;;;21.10;14.52;;;-0.40;99.90;;;;;;5006726;28;20031;-58
2023/01/19 11:23:52;;;;;;;24.77;15.30;;;-0.40;99.90;;;;;;5007127;28;20095;-59
2023/01/19 11:26:25;;;;;;;19.25;14.80;;;-0.30;99.90;;;;;;5009411;28;20033;-58
2023/01/19 11:28:54;;;;;;;23.73;15.38;;;-0.40;99.90;;;;;;5009699;28;20084;-58
2023/01/19 11:31:26;;;;;;;24.33;15.95;;;-0.40;99.90;;;;;;5011850;28;20045;-58
2023/01/19 11:33:53;;;;;;;27.33;14.52;;;-0.30;99.90;;;;;;4986556;28;20068;-60
2023/01/19 11:36:27;;;;;;;22.98;14.88;;;-0.30;99.90;;;;;;4999689;28;20030;-59
2023/01/19 11:38:56;;;;;;;27.58;14.90;;;-0.30;99.90;;;;;;5020320;28;20025;-59
2023/01/19 11:41:25;;;;;;;19.98;15.60;;;-0.30;99.90;;;;;;5010578;28;20466;-59
2023/01/19 11:43:53;;;;;;;24.02;14.77;;;-0.20;99.90;;;;;;5012730;28;20034;-60
2023/01/19 11:46:21;;;;;;;18.17;12.35;;;-0.20;99.90;;;;;;5008979;28;20030;-58
2023/01/19 11:49:07;;;;;;;17.30;11.80;;;-0.20;99.90;;;;;;5007396;28;20058;-59
2023/01/19 11:51:57;;;;;;;14.90;11.23;;;-0.20;99.90;;;;;;5010070;28;20110;-60
2023/01/19 11:54:35;;;;;;;13.18;11.48;;;-0.30;99.90;;;;;;5009962;28;20312;-59
2023/01/19 11:57:09;;;;;;;18.58;12.75;;;-0.20;99.90;;;;;;5006928;28;20026;-58
2023/01/19 11:59:34;;;;;;;19.13;13.38;;;-0.20;99.90;;;;;;5007004;28;20033;-58
2023/01/19 12:02:03;;;;;;;24.10;14.25;;;-0.20;99.90;;;;;;5008611;28;20030;-59
2023/01/19 12:04:38;;;;;;;26.20;14.98;;;-0.20;99.90;;;;;;5006857;28;20076;-58
2023/01/19 12:07:09;;;;;;;18.38;14.07;;;-0.20;99.90;;;;;;5015019;28;20397;-57
2023/01/19 12:09:38;;;;;;;;;;;-0.10;99.90;;;;;;5004043;28;20026;-58
2023/01/19 12:12:06;;;;;;;19.67;13.27;;;0.00;99.90;;;;;;5010140;28;19996;-58
2023/01/19 12:14:48;;;;;;;19.52;13.77;;;0.00;99.90;;;;;;5013110;28;20036;-57
2023/01/19 12:17:51;;;;;;;24.13;13.68;;;0.10;99.90;;;;;;5007396;28;20102;-58
2023/01/19 12:20:37;;;;;;;17.17;11.95;;;0.00;99.90;;;;;;4995749;28;20034;-59
2023/01/19 12:23:45;;;;;;;16.80;12.55;;;0.00;99.90;;;;;;5003610;28;20036;-60
2023/01/19 12:26:33;;;;;;;15.65;13.35;;;0.00;99.90;;;;;;5005495;28;20029;-60
2023/01/19 12:29:11;;;;;;;21.52;12.48;;;0.00;99.90;;;;;;5005946;28;20040;-60
2023/01/19 12:31:39;;;;;;;17.23;13.27;;;0.10;99.90;;;;;;5012770;28;20704;-60
2023/01/19 12:34:29;;;;;;;18.25;12.98;;;0.00;99.90;;;;;;5005387;28;20040;-59
2023/01/19 12:37:01;;;;;;;14.77;12.38;;;0.10;99.90;;;;;;5010077;28;20120;-59
2023/01/19 12:39:27;;;;;;;20.75;12.50;;;0.10;99.90;;;;;;5009857;28;20041;-59
2023/01/19 12:42:11;;;;;;;17.75;11.85;;;0.20;99.90;;;;;;5011251;28;20026;-58
2023/01/19 12:44:37;;;;;;;13.57;9.95;;;0.20;99.90;;;;;;5009118;28;21074;-59
2023/01/19 12:47:15;;;;;;;16.27;13.00;;;0.10;99.90;;;;;;5003979;28;20030;-60